Time;durP1;ratioP1;P1;durP2;ratioP2;P2;SDS_P1;SDS_P2;PMS_P1;PMS_P2;Temp;Humidity;BMP_temperature;BMP_pressure;BME280_temperature;BME280_humidity;BME280_pressure;Samples;Min_cycle;Max_cycle;Signal;HPM_P1;HPM_P2
2020/12/07 00:01:07;;;;;;;3.07;1.37;;;2.90;47.00;;;;;;5052876;28;20195;-70
2020/12/07 00:03:32;;;;;;;1.35;1.02;;;2.90;47.40;;;;;;5052715;28;20185;-71
2020/12/07 00:05:58;;;;;;;1.37;0.97;;;2.90;47.40;;;;;;5052845;28;20174;-70
2020/12/07 00:08:24;;;;;;;1.50;1.00;;;2.90;47.20;;;;;;5051368;28;20221;-70
2020/12/07 00:10:49;;;;;;;2.87;1.27;;;2.90;47.20;;;;;;5052671;28;20224;-71
2020/12/07 00:13:17;;;;;;;2.37;1.27;;;2.90;46.40;;;;;;5052676;28;20171;-71
2020/12/07 00:15:42;;;;;;;1.20;0.80;;;2.90;46.80;;;;;;5052518;28;20183;-70
2020/12/07 00:18:08;;;;;;;2.03;1.50;;;2.90;46.70;;;;;;5052790;28;20581;-71
2020/12/07 00:20:33;;;;;;;4.67;1.10;;;2.90;46.40;;;;;;5052489;28;20644;-71
2020/12/07 00:22:59;;;;;;;1.50;1.30;;;2.90;46.40;;;;;;5052466;28;20227;-70
2020/12/07 00:25:25;;;;;;;1.40;0.93;;;2.80;46.40;;;;;;5052368;28;20215;-72
2020/12/07 00:27:50;;;;;;;1.57;0.87;;;2.80;46.90;;;;;;5052285;28;20236;-71
2020/12/07 00:30:16;;;;;;;1.30;0.87;;;2.80;46.90;;;;;;5052111;28;20201;-71
2020/12/07 00:32:41;;;;;;;1.60;1.00;;;2.80;46.80;;;;;;5052535;28;20194;-72
2020/12/07 00:35:07;;;;;;;1.37;0.70;;;2.80;46.70;;;;;;5052268;28;20264;-72
2020/12/07 00:37:32;;;;;;;1.10;0.70;;;2.80;47.00;;;;;;5052146;28;20312;-71
2020/12/07 00:39:58;;;;;;;1.57;1.00;;;2.80;47.60;;;;;;5050599;28;20201;-72
2020/12/07 00:42:24;;;;;;;2.43;1.30;;;2.70;47.00;;;;;;5052108;28;20178;-73
2020/12/07 00:44:49;;;;;;;1.73;1.30;;;2.70;47.50;;;;;;5052068;28;20569;-70
2020/12/07 00:47:15;;;;;;;2.40;1.33;;;2.70;47.40;;;;;;5050607;28;20281;-71
2020/12/07 00:49:40;;;;;;;1.00;0.77;;;2.70;47.70;;;;;;5051740;28;20237;-72
2020/12/07 00:52:07;;;;;;;1.13;0.73;;;2.60;47.90;;;;;;5051900;28;20178;-72
2020/12/07 00:54:33;;;;;;;8.07;1.25;;;2.60;48.30;;;;;;5051872;28;20174;-72
2020/12/07 00:57:00;;;;;;;1.25;0.88;;;2.60;48.60;;;;;;5051835;28;20569;-72
2020/12/07 00:59:27;;;;;;;1.52;0.90;;;2.50;48.70;;;;;;5050549;28;20170;-71
2020/12/07 01:01:54;;;;;;;1.20;1.00;;;;;;;;;;5051743;28;20175;-72
2020/12/07 01:04:21;;;;;;;5.50;1.30;;;2.50;48.70;;;;;;5050395;28;20178;-74
2020/12/07 01:06:47;;;;;;;2.60;0.90;;;2.60;49.50;;;;;;5050128;28;20173;-72
2020/12/07 01:09:16;;;;;;;1.48;0.93;;;2.60;49.20;;;;;;5051300;28;20587;-71
2020/12/07 01:11:44;;;;;;;1.73;1.17;;;2.70;49.10;;;;;;5051549;28;20198;-71
2020/12/07 01:14:14;;;;;;;1.85;1.20;;;2.70;49.20;;;;;;5051736;28;20170;-71
2020/12/07 01:16:40;;;;;;;1.58;1.10;;;2.80;49.10;;;;;;5051440;28;20198;-72
2020/12/07 01:19:07;;;;;;;2.00;1.05;;;2.80;48.40;;;;;;5051319;28;20178;-72
2020/12/07 01:21:34;;;;;;;1.48;1.02;;;2.80;48.40;;;;;;5051265;28;20303;-72
2020/12/07 01:24:00;;;;;;;1.50;1.02;;;2.80;48.70;;;;;;5050095;28;20257;-71
2020/12/07 01:26:26;;;;;;;1.10;0.70;;;2.80;48.90;;;;;;5051134;28;20175;-72
2020/12/07 01:28:53;;;;;;;1.57;0.90;;;2.90;48.90;;;;;;5051208;28;20464;-71
2020/12/07 01:31:19;;;;;;;1.98;1.00;;;2.90;48.80;;;;;;5051132;28;20186;-72
2020/12/07 01:33:45;;;;;;;1.70;0.90;;;2.90;48.30;;;;;;5051419;28;20199;-72
2020/12/07 01:36:11;;;;;;;1.13;0.70;;;3.00;48.30;;;;;;5051377;28;20178;-72
2020/12/07 01:38:37;;;;;;;1.30;0.95;;;3.00;48.50;;;;;;5051531;28;20175;-72
2020/12/07 01:41:03;;;;;;;2.13;1.10;;;3.00;48.30;;;;;;5050931;28;20203;-72
2020/12/07 01:43:28;;;;;;;1.40;0.83;;;3.10;47.80;;;;;;5049901;28;20183;-71
2020/12/07 01:45:55;;;;;;;2.20;0.90;;;3.20;47.90;;;;;;5051179;28;20269;-71
2020/12/07 01:48:21;;;;;;;1.70;0.93;;;3.20;47.50;;;;;;5049771;28;20260;-73
2020/12/07 01:50:47;;;;;;;5.43;1.07;;;3.20;47.30;;;;;;5049341;28;20201;-72
2020/12/07 01:53:13;;;;;;;1.20;0.70;;;3.20;46.70;;;;;;5051042;28;20405;-73
2020/12/07 01:55:40;;;;;;;1.10;0.90;;;3.20;46.70;;;;;;5050983;28;20512;-72
2020/12/07 01:58:06;;;;;;;1.30;0.80;;;3.20;46.60;;;;;;5049516;28;20174;-72
2020/12/07 02:00:31;;;;;;;2.20;0.73;;;3.20;46.60;;;;;;5050574;28;20202;-73
2020/12/07 02:02:57;;;;;;;1.10;0.90;;;3.20;46.60;;;;;;5049516;28;20178;-72
2020/12/07 02:05:24;;;;;;;1.77;0.67;;;3.20;46.60;;;;;;5050820;28;20206;-71
2020/12/07 02:08:08;;;;;;;1.20;0.77;;;3.20;46.60;;;;;;5050819;28;20614;-71
2020/12/07 02:10:34;;;;;;;1.73;0.80;;;3.30;46.70;;;;;;5054874;28;20289;-72
2020/12/07 02:12:59;;;;;;;1.30;0.80;;;3.30;46.40;;;;;;5057366;28;20254;-72
2020/12/07 02:15:25;;;;;;;1.10;0.70;;;3.20;46.60;;;;;;5056012;28;20187;-71
2020/12/07 02:17:50;;;;;;;1.03;0.57;;;3.20;46.70;;;;;;5055984;28;20221;-73
2020/12/07 02:20:16;;;;;;;1.20;0.80;;;3.20;46.70;;;;;;5056929;28;20535;-72
2020/12/07 02:22:41;;;;;;;1.90;1.00;;;3.20;46.60;;;;;;5057203;28;20667;-71
2020/12/07 02:25:07;;;;;;;1.27;0.70;;;3.30;45.90;;;;;;5057317;28;20185;-73
2020/12/07 02:27:33;;;;;;;1.30;0.73;;;3.30;46.10;;;;;;5057165;28;20202;-72
2020/12/07 02:29:59;;;;;;;1.92;1.00;;;3.40;45.80;;;;;;5057106;28;20237;-72
2020/12/07 02:32:25;;;;;;;1.10;0.67;;;3.40;45.60;;;;;;5056086;28;20202;-71
2020/12/07 02:34:51;;;;;;;1.50;0.90;;;3.30;45.40;;;;;;5057332;28;20167;-72
2020/12/07 02:37:16;;;;;;;0.93;0.50;;;3.40;45.80;;;;;;5057206;28;20175;-72
2020/12/07 02:39:42;;;;;;;1.07;0.60;;;3.30;46.10;;;;;;5056877;28;20273;-71
2020/12/07 02:42:07;;;;;;;1.40;0.97;;;3.40;45.70;;;;;;5055977;28;20182;-71
2020/12/07 02:44:33;;;;;;;1.57;0.80;;;3.30;45.60;;;;;;5057136;28;20186;-71
2020/12/07 02:46:59;;;;;;;1.23;0.63;;;3.30;46.20;;;;;;5056970;28;20200;-72
2020/12/07 02:49:25;;;;;;;1.20;0.90;;;3.30;46.60;;;;;;5055661;28;20212;-73
2020/12/07 02:51:51;;;;;;;1.20;0.70;;;3.30;46.40;;;;;;5057144;28;20628;-71
2020/12/07 02:54:17;;;;;;;1.47;0.80;;;3.30;45.70;;;;;;5057154;28;20170;-73
2020/12/07 02:56:42;;;;;;;1.60;1.00;;;3.40;45.70;;;;;;5057162;28;20914;-70
2020/12/07 02:59:08;;;;;;;1.30;0.90;;;3.40;45.50;;;;;;5056889;28;20174;-70
2020/12/07 03:01:34;;;;;;;1.50;0.80;;;3.40;45.60;;;;;;5057126;28;20190;-70
2020/12/07 03:03:59;;;;;;;1.40;0.80;;;3.40;45.40;;;;;;5056042;28;20424;-71
2020/12/07 03:06:27;;;;;;;2.23;1.10;;;3.40;45.40;;;;;;5056930;28;20178;-73
2020/12/07 03:08:53;;;;;;;1.73;0.90;;;3.40;45.50;;;;;;5055252;28;20206;-74
2020/12/07 03:11:18;;;;;;;1.10;0.70;;;3.50;45.20;;;;;;5055817;28;20222;-71
2020/12/07 03:13:44;;;;;;;1.23;0.70;;;3.40;45.30;;;;;;5056800;28;20175;-70
2020/12/07 03:16:09;;;;;;;1.20;0.90;;;3.40;45.50;;;;;;5055443;28;20174;-71
2020/12/07 03:18:35;;;;;;;1.30;1.03;;;3.40;45.20;;;;;;5056730;28;20244;-74
2020/12/07 03:21:00;;;;;;;1.97;0.90;;;3.40;45.40;;;;;;5041252;22;20707;-72
2020/12/07 03:23:26;;;;;;;1.20;0.80;;;3.40;46.20;;;;;;4953885;28;20748;-73
2020/12/07 03:25:51;;;;;;;1.20;0.77;;;3.30;46.20;;;;;;4954153;28;20645;-72
2020/12/07 03:28:17;;;;;;;1.50;1.00;;;3.30;46.70;;;;;;4952120;29;20284;-72
2020/12/07 03:30:42;;;;;;;1.10;0.63;;;3.30;45.90;;;;;;4953347;28;20471;-72
2020/12/07 03:33:08;;;;;;;1.30;0.90;;;3.30;46.70;;;;;;4954080;28;20189;-73
2020/12/07 03:35:33;;;;;;;1.57;0.90;;;3.30;46.70;;;;;;4953866;28;20178;-72
2020/12/07 03:37:59;;;;;;;0.90;0.40;;;3.30;46.70;;;;;;4953850;28;20185;-73
2020/12/07 03:40:25;;;;;;;1.27;0.70;;;3.30;46.70;;;;;;4953569;28;20286;-72
2020/12/07 03:42:50;;;;;;;1.70;1.10;;;3.30;46.70;;;;;;4953908;28;20181;-73
2020/12/07 03:45:16;;;;;;;1.43;1.07;;;3.30;46.50;;;;;;4953985;28;20178;-72
2020/12/07 03:47:41;;;;;;;1.97;1.00;;;3.30;46.70;;;;;;4953292;28;20290;-73
2020/12/07 03:50:07;;;;;;;3.23;0.97;;;3.40;46.80;;;;;;4953269;28;20213;-73
2020/12/07 03:52:32;;;;;;;1.50;0.77;;;3.30;46.70;;;;;;4953324;28;20189;-73
2020/12/07 03:54:58;;;;;;;1.10;0.60;;;3.30;46.70;;;;;;4953693;28;20182;-73
2020/12/07 03:57:23;;;;;;;4.33;0.80;;;3.30;46.70;;;;;;4953154;28;20174;-73
2020/12/07 03:59:49;;;;;;;1.67;1.00;;;3.30;46.80;;;;;;4953135;28;20214;-72
2020/12/07 04:02:15;;;;;;;1.17;0.70;;;3.20;47.00;;;;;;4953472;28;20207;-72
2020/12/07 04:04:58;;;;;;;1.53;0.87;;;3.20;46.60;;;;;;4952730;28;20472;-73
2020/12/07 04:07:24;;;;;;;1.40;0.90;;;3.20;47.20;;;;;;4953267;28;20256;-73
2020/12/07 04:09:49;;;;;;;1.30;0.90;;;3.10;47.80;;;;;;4951601;28;20215;-72
2020/12/07 04:12:15;;;;;;;2.30;1.03;;;3.10;48.00;;;;;;4953064;28;20273;-73
2020/12/07 04:14:40;;;;;;;3.27;1.03;;;3.00;48.20;;;;;;4952166;28;20186;-73
2020/12/07 04:17:06;;;;;;;1.40;0.80;;;3.10;48.40;;;;;;4953533;28;20170;-72
2020/12/07 04:19:31;;;;;;;1.53;0.90;;;3.10;48.20;;;;;;4953612;28;20265;-73
2020/12/07 04:21:57;;;;;;;2.20;1.27;;;3.10;48.10;;;;;;4951912;28;20228;-72
2020/12/07 04:24:22;;;;;;;1.30;0.80;;;3.10;47.30;;;;;;4952988;28;20193;-73
2020/12/07 04:26:48;;;;;;;1.50;1.13;;;3.00;47.70;;;;;;4952627;28;20530;-73
2020/12/07 04:29:14;;;;;;;1.85;0.75;;;2.90;47.80;;;;;;4952968;28;20296;-73
2020/12/07 04:31:40;;;;;;;1.63;1.00;;;2.90;47.80;;;;;;4953003;28;20241;-73
2020/12/07 04:34:05;;;;;;;2.60;1.00;;;2.90;47.90;;;;;;4951786;28;20414;-72
2020/12/07 04:36:31;;;;;;;1.10;0.77;;;3.00;47.80;;;;;;4952077;28;20523;-72
2020/12/07 04:38:56;;;;;;;1.10;0.70;;;3.00;47.50;;;;;;4952742;28;20557;-73
2020/12/07 04:41:22;;;;;;;1.30;1.00;;;3.00;47.00;;;;;;4952093;28;20206;-72
2020/12/07 04:43:49;;;;;;;1.50;1.07;;;3.00;46.50;;;;;;4952879;28;20190;-73
2020/12/07 04:46:15;;;;;;;4.45;1.10;;;2.90;47.50;;;;;;4952842;28;20178;-72
2020/12/07 04:48:41;;;;;;;1.50;1.17;;;3.00;47.20;;;;;;4950965;28;20210;-73
2020/12/07 04:51:09;;;;;;;3.05;1.30;;;3.00;46.80;;;;;;4952421;28;20189;-72
2020/12/07 04:53:36;;;;;;;1.67;0.90;;;2.90;47.30;;;;;;4952655;28;20528;-72
2020/12/07 04:56:02;;;;;;;1.75;1.20;;;2.90;47.20;;;;;;4952538;28;20700;-72
2020/12/07 04:58:27;;;;;;;1.83;1.33;;;2.90;47.40;;;;;;4952730;28;20174;-71
2020/12/07 05:00:54;;;;;;;1.77;1.63;;;2.90;47.60;;;;;;4952479;28;20444;-71
2020/12/07 05:03:19;;;;;;;1.40;1.00;;;2.90;47.40;;;;;;4952721;28;20974;-72
2020/12/07 05:05:45;;;;;;;2.23;1.47;;;2.90;48.00;;;;;;4952070;28;20209;-72
2020/12/07 05:08:11;;;;;;;1.40;0.90;;;2.90;48.00;;;;;;4951828;28;20263;-72
2020/12/07 05:10:43;;;;;;;3.92;1.23;;;2.80;48.20;;;;;;4952144;28;20209;-72
2020/12/07 05:13:35;;;;;;;1.75;1.25;;;2.80;48.30;;;;;;4951928;28;20650;-72
2020/12/07 05:16:01;;;;;;;2.08;1.65;;;2.80;48.40;;;;;;4951998;28;20704;-72
2020/12/07 05:18:27;;;;;;;3.57;1.93;;;2.70;48.80;;;;;;4951793;28;20192;-71
2020/12/07 05:20:52;;;;;;;2.37;1.10;;;2.60;48.80;;;;;;4951335;28;20515;-72
2020/12/07 05:23:18;;;;;;;2.03;1.33;;;2.60;49.70;;;;;;4951309;28;20217;-72
2020/12/07 05:25:45;;;;;;;3.40;1.23;;;2.50;49.40;;;;;;4951318;28;20240;-71
2020/12/07 05:28:14;;;;;;;1.70;1.23;;;2.50;49.90;;;;;;4951239;28;20585;-71
2020/12/07 05:30:43;;;;;;;1.75;1.48;;;2.40;49.20;;;;;;4950788;28;20246;-72
2020/12/07 05:33:11;;;;;;;5.53;2.00;;;2.30;50.00;;;;;;4949636;28;20176;-72
2020/12/07 05:35:38;;;;;;;2.15;1.95;;;2.30;49.80;;;;;;4951299;28;20200;-71
2020/12/07 05:38:04;;;;;;;4.00;2.38;;;2.20;49.90;;;;;;4949785;28;20181;-72
2020/12/07 05:40:30;;;;;;;4.47;2.35;;;2.10;50.00;;;;;;4950409;28;20270;-73
2020/12/07 05:42:58;;;;;;;2.20;1.93;;;2.10;50.10;;;;;;4951061;28;20182;-72
2020/12/07 05:45:24;;;;;;;2.50;1.80;;;2.10;50.20;;;;;;4950165;28;20678;-71
2020/12/07 05:47:52;;;;;;;1.95;1.75;;;2.00;50.40;;;;;;4949433;28;20209;-72
2020/12/07 05:50:19;;;;;;;2.85;1.98;;;2.00;50.10;;;;;;4950441;28;20728;-72
2020/12/07 05:52:53;;;;;;;2.88;2.08;;;2.00;49.80;;;;;;4950980;28;20182;-71
2020/12/07 05:55:20;;;;;;;3.63;2.08;;;2.00;50.60;;;;;;4950970;28;20271;-71
2020/12/07 05:57:48;;;;;;;3.20;1.90;;;2.00;50.60;;;;;;4949881;28;20196;-71
2020/12/07 06:00:21;;;;;;;2.78;2.13;;;1.90;50.50;;;;;;4950414;28;20177;-72
2020/12/07 06:02:51;;;;;;;3.70;2.15;;;;;;;;;;4949722;29;20189;-71
2020/12/07 06:05:16;;;;;;;2.20;2.00;;;1.70;49.50;;;;;;4951272;28;20184;-72
2020/12/07 06:07:47;;;;;;;3.30;2.23;;;1.70;50.40;;;;;;4950703;28;20277;-72
2020/12/07 06:10:16;;;;;;;2.78;2.15;;;1.70;50.30;;;;;;4950353;28;20566;-73
2020/12/07 06:12:48;;;;;;;1.98;1.65;;;1.60;49.90;;;;;;4950783;28;20697;-72
2020/12/07 06:15:19;;;;;;;3.30;2.10;;;1.60;50.20;;;;;;4949245;28;20227;-73
2020/12/07 06:17:48;;;;;;;2.92;2.20;;;1.50;50.30;;;;;;4950848;28;20230;-73
2020/12/07 06:20:32;;;;;;;2.70;1.70;;;1.60;50.90;;;;;;4950024;28;20179;-73
2020/12/07 06:23:00;;;;;;;2.67;2.20;;;1.60;51.30;;;;;;4950597;28;20203;-71
2020/12/07 06:25:30;;;;;;;3.53;2.65;;;1.70;51.60;;;;;;4948959;28;20185;-71
2020/12/07 06:28:03;;;;;;;3.08;2.20;;;1.60;51.60;;;;;;4950898;28;20297;-72
2020/12/07 06:30:31;;;;;;;4.15;2.90;;;1.60;52.00;;;;;;4949683;28;20252;-70
2020/12/07 06:32:57;;;;;;;3.30;2.35;;;1.50;51.80;;;;;;4950433;28;20268;-71
2020/12/07 06:35:26;;;;;;;2.73;2.53;;;1.40;51.70;;;;;;4950386;28;20266;-72
2020/12/07 06:37:52;;;;;;;2.28;2.05;;;1.40;52.90;;;;;;4950633;28;20177;-72
2020/12/07 06:40:20;;;;;;;2.90;2.50;;;1.40;52.60;;;;;;4950230;28;20263;-71
2020/12/07 06:42:47;;;;;;;2.45;2.25;;;1.40;52.70;;;;;;4950598;28;20181;-71
2020/12/07 06:45:24;;;;;;;2.75;2.42;;;;;;;;;;4951505;28;20252;-72
2020/12/07 06:47:50;;;;;;;4.30;2.88;;;1.30;52.10;;;;;;4951448;28;20210;-71
2020/12/07 06:50:19;;;;;;;3.22;2.83;;;1.30;53.10;;;;;;4952008;28;20176;-72
2020/12/07 06:52:46;;;;;;;5.53;3.03;;;1.40;53.10;;;;;;4951620;28;20176;-72
2020/12/07 06:55:16;;;;;;;3.25;2.60;;;1.40;52.80;;;;;;4952488;28;20176;-72
2020/12/07 06:57:45;;;;;;;3.60;2.67;;;1.40;53.30;;;;;;4954073;28;20208;-72
2020/12/07 07:00:18;;;;;;;4.25;2.63;;;;;;;;;;4954595;28;20185;-72
2020/12/07 07:02:54;;;;;;;4.35;2.85;;;1.50;52.80;;;;;;4955410;28;20192;-72
2020/12/07 07:05:21;;;;;;;4.00;2.58;;;1.40;53.60;;;;;;4953868;28;20191;-72
2020/12/07 07:07:47;;;;;;;3.15;2.70;;;1.50;54.00;;;;;;4955062;28;20208;-72
2020/12/07 07:10:15;;;;;;;8.18;2.70;;;1.50;53.40;;;;;;4953445;28;20181;-72
2020/12/07 07:12:42;;;;;;;3.05;2.55;;;1.60;53.70;;;;;;4955698;28;20170;-72
2020/12/07 07:15:09;;;;;;;3.10;2.60;;;1.60;53.10;;;;;;4955379;28;20542;-72
2020/12/07 07:17:40;;;;;;;7.00;3.47;;;1.60;53.10;;;;;;4954880;28;20260;-72
2020/12/07 07:20:08;;;;;;;3.60;3.30;;;1.60;52.80;;;;;;4950168;28;20233;-71
2020/12/07 07:22:35;;;;;;;4.30;2.70;;;1.70;52.60;;;;;;4936986;28;20209;-72
2020/12/07 07:25:10;;;;;;;4.75;3.25;;;1.70;52.50;;;;;;4935327;29;20175;-71
2020/12/07 07:30:20;;;;;;;3.28;2.80;;;1.70;52.10;;;;;;4934670;29;20585;-72
2020/12/07 07:32:48;;;;;;;3.35;3.00;;;1.70;51.70;;;;;;4944919;29;20182;-71
2020/12/07 07:35:16;;;;;;;3.47;3.17;;;1.70;51.30;;;;;;4935773;29;20202;-71
2020/12/07 07:37:42;;;;;;;3.20;2.75;;;1.70;50.70;;;;;;4936349;29;20188;-72
2020/12/07 07:40:13;;;;;;;5.30;3.73;;;1.70;50.30;;;;;;4953809;28;20181;-71
2020/12/07 07:42:49;;;;;;;6.28;3.13;;;1.60;50.20;;;;;;4953754;28;20435;-71
2020/12/07 07:45:17;;;;;;;4.53;3.22;;;1.70;50.30;;;;;;4941205;28;20185;-70
2020/12/07 07:50:47;;;;;;;4.93;4.40;;;1.60;50.30;;;;;;4934550;29;20279;-69
2020/12/07 08:03:28;;;;;;;4.15;3.78;;;1.60;51.30;;;;;;4931703;29;20245;-70
2020/12/07 08:15:42;;;;;;;4.03;3.63;;;1.90;49.40;;;;;;4934059;28;20184;-73
2020/12/07 08:18:09;;;;;;;4.40;3.58;;;1.90;48.20;;;;;;4927689;29;20659;-71
2020/12/07 08:20:38;;;;;;;6.63;4.10;;;2.00;47.60;;;;;;4928188;29;20216;-72
2020/12/07 08:23:06;;;;;;;5.85;4.75;;;2.00;47.30;;;;;;4934679;29;20193;-71
2020/12/07 08:25:46;;;;;;;3.92;3.63;;;2.10;47.40;;;;;;4942374;29;20194;-71
2020/12/07 08:28:37;;;;;;;6.32;4.75;;;2.10;47.50;;;;;;4946865;29;20212;-70
2020/12/07 08:31:14;;;;;;;5.32;4.82;;;2.10;47.00;;;;;;4923615;28;20229;-70
2020/12/07 08:33:59;;;;;;;3.28;2.97;;;2.20;46.50;;;;;;4930291;28;20635;-72
2020/12/07 08:36:26;;;;;;;7.30;5.22;;;;;;;;;;4939874;28;20195;-70
2020/12/07 08:38:52;;;;;;;4.85;3.75;;;2.30;46.80;;;;;;4935205;29;20186;-71
2020/12/07 08:41:23;;;;;;;6.63;4.67;;;2.40;46.10;;;;;;4931436;29;20202;-73
2020/12/07 08:43:54;;;;;;;6.53;3.70;;;2.50;46.20;;;;;;4943430;29;20185;-70
2020/12/07 08:46:25;;;;;;;5.65;4.50;;;2.50;46.10;;;;;;4950167;28;20185;-70
2020/12/07 08:48:51;;;;;;;4.32;3.25;;;2.60;46.20;;;;;;4949916;28;20213;-71
2020/12/07 08:51:20;;;;;;;7.00;4.70;;;2.70;45.20;;;;;;4950526;28;20781;-71
2020/12/07 08:53:46;;;;;;;4.95;4.45;;;2.70;45.70;;;;;;4951820;28;20980;-72
2020/12/07 08:56:11;;;;;;;5.90;5.30;;;2.80;45.50;;;;;;4953522;28;20261;-71
2020/12/07 08:58:38;;;;;;;5.67;4.23;;;2.90;44.60;;;;;;4950193;28;20219;-74
2020/12/07 09:01:05;;;;;;;4.13;3.75;;;2.90;44.90;;;;;;4949397;28;20205;-72
2020/12/07 09:03:32;;;;;;;6.05;5.28;;;3.00;44.80;;;;;;4952128;29;20585;-70
2020/12/07 09:06:00;;;;;;;6.03;4.22;;;3.10;44.10;;;;;;4953237;28;20212;-69
2020/12/07 09:08:26;;;;;;;5.70;3.92;;;3.20;44.10;;;;;;4951047;28;20766;-71
2020/12/07 09:10:51;;;;;;;5.00;4.50;;;3.30;43.30;;;;;;4952085;28;20218;-70
2020/12/07 09:13:17;;;;;;;5.67;4.23;;;3.30;43.10;;;;;;4953071;28;20552;-72
2020/12/07 09:15:43;;;;;;;5.07;4.63;;;3.40;42.40;;;;;;4949681;28;20644;-69
2020/12/07 09:18:09;;;;;;;4.33;3.97;;;3.50;42.20;;;;;;4934059;29;20773;-69
2020/12/07 09:20:34;;;;;;;4.75;3.40;;;3.50;41.80;;;;;;4933444;29;20439;-70
2020/12/07 09:23:00;;;;;;;7.23;4.80;;;3.50;41.20;;;;;;4981405;23;20282;-70
2020/12/07 09:25:26;;;;;;;4.10;3.70;;;3.50;41.40;;;;;;4976627;28;20546;-70
2020/12/07 09:27:51;;;;;;;4.93;4.00;;;3.50;41.90;;;;;;4972519;28;20201;-72
2020/12/07 09:30:17;;;;;;;4.33;3.93;;;3.60;42.00;;;;;;4971698;28;20727;-71
2020/12/07 09:32:42;;;;;;;3.30;3.00;;;3.70;41.20;;;;;;4970757;28;20192;-71
2020/12/07 09:35:08;;;;;;;7.93;3.87;;;3.80;40.60;;;;;;4970716;28;20254;-72
2020/12/07 09:37:35;;;;;;;4.10;3.60;;;3.80;40.00;;;;;;4971355;28;20185;-72
2020/12/07 09:40:02;;;;;;;4.60;3.78;;;3.90;38.80;;;;;;4962091;28;20207;-74
2020/12/07 09:42:27;;;;;;;3.95;3.17;;;4.00;39.00;;;;;;4970738;28;20192;-74
2020/12/07 09:44:53;;;;;;;4.00;3.60;;;4.10;38.60;;;;;;4970779;28;20181;-73
2020/12/07 09:47:18;;;;;;;3.07;2.77;;;4.20;37.50;;;;;;4962103;28;20203;-72
2020/12/07 09:49:44;;;;;;;5.40;2.83;;;4.20;37.50;;;;;;4961720;28;20182;-72
2020/12/07 09:52:10;;;;;;;6.47;3.20;;;4.20;37.50;;;;;;4973003;28;20197;-73
2020/12/07 09:54:39;;;;;;;6.10;3.57;;;4.30;37.90;;;;;;4963109;28;20182;-73
2020/12/07 09:57:05;;;;;;;4.50;3.63;;;4.40;37.60;;;;;;4953597;28;20186;-73
2020/12/07 09:59:35;;;;;;;4.05;2.90;;;4.50;37.50;;;;;;4954261;28;20178;-73
2020/12/07 10:02:05;;;;;;;3.60;3.13;;;4.50;36.90;;;;;;4954261;28;20312;-72
2020/12/07 10:04:32;;;;;;;3.40;3.08;;;4.50;36.50;;;;;;4953964;28;20197;-74
2020/12/07 10:06:57;;;;;;;3.63;3.33;;;4.50;35.70;;;;;;4953423;28;20182;-74
2020/12/07 10:09:24;;;;;;;3.30;3.00;;;4.50;35.90;;;;;;4951940;28;20355;-72
2020/12/07 10:11:50;;;;;;;4.00;3.28;;;4.50;36.20;;;;;;4953099;28;20560;-72
2020/12/07 10:14:16;;;;;;;3.73;3.00;;;4.50;36.00;;;;;;4953184;29;20228;-75
2020/12/07 10:16:43;;;;;;;3.60;3.30;;;4.40;36.00;;;;;;4956849;28;20198;-72
2020/12/07 10:19:09;;;;;;;2.85;2.45;;;4.50;36.10;;;;;;4972230;28;20181;-72
2020/12/07 10:21:34;;;;;;;2.47;2.27;;;4.50;36.30;;;;;;4963374;28;20632;-72
2020/12/07 10:24:00;;;;;;;2.87;2.63;;;4.60;35.40;;;;;;4952724;28;20201;-74
2020/12/07 10:26:26;;;;;;;4.30;3.23;;;4.50;35.70;;;;;;4952844;29;20546;-74
2020/12/07 10:28:52;;;;;;;2.43;2.23;;;4.50;36.40;;;;;;4946572;29;20478;-72
2020/12/07 10:31:22;;;;;;;4.00;3.07;;;4.50;36.10;;;;;;4952837;29;20487;-72
2020/12/07 10:33:48;;;;;;;4.65;3.53;;;4.50;35.50;;;;;;4956396;28;20187;-71
2020/12/07 10:36:16;;;;;;;3.88;3.40;;;4.60;36.00;;;;;;4968293;28;20257;-74
2020/12/07 10:38:42;;;;;;;3.28;2.97;;;4.70;35.80;;;;;;4975953;28;20261;-73
2020/12/07 10:41:07;;;;;;;2.97;2.77;;;4.80;35.60;;;;;;4975751;28;20392;-72
2020/12/07 10:43:33;;;;;;;2.60;2.40;;;4.90;33.80;;;;;;4973831;28;20997;-71
2020/12/07 10:45:58;;;;;;;2.77;2.17;;;4.90;34.30;;;;;;4975449;28;20262;-73
2020/12/07 10:48:24;;;;;;;3.70;2.73;;;5.00;34.10;;;;;;4970309;28;20199;-73
2020/12/07 10:50:49;;;;;;;3.60;2.43;;;5.00;33.90;;;;;;4963454;28;20563;-71
2020/12/07 10:53:15;;;;;;;2.97;2.63;;;5.10;34.00;;;;;;4961027;28;20217;-72
2020/12/07 10:55:41;;;;;;;2.70;2.33;;;5.00;34.60;;;;;;4961077;28;20608;-74
2020/12/07 10:58:06;;;;;;;3.27;2.97;;;5.10;33.80;;;;;;4962463;28;20188;-71
2020/12/07 11:00:32;;;;;;;3.00;2.70;;;5.10;34.20;;;;;;4975188;28;20417;-71
2020/12/07 11:02:58;;;;;;;2.83;2.47;;;5.10;34.50;;;;;;4966097;28;20211;-72
2020/12/07 11:05:23;;;;;;;2.70;2.50;;;5.10;33.70;;;;;;4954988;28;20621;-72
2020/12/07 11:07:52;;;;;;;3.47;2.10;;;5.00;33.80;;;;;;4972164;28;20209;-73
2020/12/07 11:10:17;;;;;;;3.55;2.85;;;5.00;34.30;;;;;;4966033;28;20228;-71
2020/12/07 11:12:46;;;;;;;3.67;2.80;;;4.90;34.50;;;;;;4952906;29;20620;-73
2020/12/07 11:15:11;;;;;;;2.30;2.10;;;4.90;34.80;;;;;;4957115;29;20174;-74
2020/12/07 11:17:37;;;;;;;2.73;2.20;;;4.90;35.20;;;;;;4978286;28;20201;-75
2020/12/07 11:20:03;;;;;;;3.10;2.67;;;5.00;35.20;;;;;;4972679;28;20594;-71
2020/12/07 11:22:28;;;;;;;3.43;2.40;;;5.00;34.30;;;;;;4961102;28;20223;-72
2020/12/07 11:24:54;;;;;;;2.57;1.83;;;5.00;34.70;;;;;;4952518;28;20425;-72
2020/12/07 11:27:19;;;;;;;2.17;1.80;;;5.00;34.00;;;;;;4964375;28;20600;-73
2020/12/07 11:29:45;;;;;;;2.23;1.80;;;5.10;34.50;;;;;;4971481;28;20183;-75
2020/12/07 11:32:10;;;;;;;2.43;2.23;;;5.20;34.30;;;;;;4970345;28;20608;-72
2020/12/07 11:34:36;;;;;;;3.40;2.50;;;5.40;34.00;;;;;;4971535;28;20257;-72
2020/12/07 11:37:02;;;;;;;2.60;2.20;;;;;;;;;;4958948;28;20184;-72
2020/12/07 11:39:43;;;;;;;2.58;2.17;;;5.20;32.60;;;;;;4951001;28;20182;-73
2020/12/07 11:44:34;;;;;;;7.17;2.40;;;5.20;32.10;;;;;;4972027;28;20643;-72
2020/12/07 11:47:06;;;;;;;3.90;2.47;;;5.20;33.10;;;;;;4968910;28;20186;-72
2020/12/07 11:49:32;;;;;;;3.25;2.25;;;5.20;33.40;;;;;;4970490;28;20189;-72
2020/12/07 11:52:02;;;;;;;2.50;2.30;;;5.10;32.50;;;;;;4982135;28;20194;-72
2020/12/07 11:54:28;;;;;;;2.17;1.88;;;;;;;;;;4954142;28;20182;-73
2020/12/07 11:56:54;;;;;;;2.47;2.13;;;5.00;33.20;;;;;;4951020;28;20186;-72
2020/12/07 11:59:20;;;;;;;3.50;1.70;;;5.00;34.00;;;;;;4950799;29;20184;-72
2020/12/07 12:01:45;;;;;;;3.30;2.70;;;4.90;33.40;;;;;;4952372;28;20202;-72
2020/12/07 12:04:11;;;;;;;2.47;2.27;;;4.90;34.30;;;;;;4951876;28;20174;-72
2020/12/07 12:06:38;;;;;;;3.53;2.73;;;5.00;33.60;;;;;;4962607;28;20218;-72
2020/12/07 12:09:06;;;;;;;2.85;2.65;;;5.10;34.90;;;;;;4960361;28;20202;-72
2020/12/07 12:11:34;;;;;;;4.78;2.85;;;5.10;34.30;;;;;;4971853;28;20741;-72
2020/12/07 12:14:05;;;;;;;2.80;2.55;;;5.20;34.10;;;;;;4959083;28;20179;-71
2020/12/07 12:16:31;;;;;;;2.70;2.50;;;5.30;33.20;;;;;;4952116;28;20188;-72
2020/12/07 12:18:58;;;;;;;3.67;2.47;;;5.40;34.20;;;;;;4953827;28;20176;-72
2020/12/07 12:21:26;;;;;;;2.42;2.22;;;5.40;33.00;;;;;;4952884;28;20194;-71
2020/12/07 12:23:52;;;;;;;4.38;2.85;;;5.50;33.30;;;;;;4950835;28;20654;-71
2020/12/07 12:26:19;;;;;;;7.73;4.33;;;5.50;32.20;;;;;;4965434;28;20269;-71
2020/12/07 12:28:45;;;;;;;3.07;2.77;;;5.60;32.70;;;;;;4986886;28;20207;-71
2020/12/07 12:31:11;;;;;;;3.70;2.40;;;5.70;31.80;;;;;;4985985;28;20418;-72
2020/12/07 12:33:36;;;;;;;4.68;3.30;;;5.70;31.10;;;;;;4971723;28;20261;-72
2020/12/07 12:36:03;;;;;;;3.40;3.10;;;5.60;32.40;;;;;;4987169;28;20509;-72
2020/12/07 12:38:28;;;;;;;2.70;2.50;;;5.60;32.40;;;;;;4968183;28;20666;-72
2020/12/07 12:40:54;;;;;;;2.77;2.53;;;5.50;30.90;;;;;;4953767;28;20243;-72
2020/12/07 12:43:19;;;;;;;4.50;4.10;;;5.40;31.80;;;;;;4960191;28;20238;-71
2020/12/07 12:45:45;;;;;;;5.23;2.97;;;5.30;32.80;;;;;;4952218;28;20183;-71
2020/12/07 12:48:10;;;;;;;3.63;2.93;;;5.20;32.30;;;;;;4952928;28;20217;-72
2020/12/07 12:50:36;;;;;;;4.17;3.53;;;5.20;32.40;;;;;;4951967;28;20180;-72
2020/12/07 12:53:02;;;;;;;5.00;2.83;;;5.10;32.70;;;;;;4969341;28;20207;-73
2020/12/07 12:55:27;;;;;;;3.97;3.53;;;5.10;32.60;;;;;;4954062;28;20187;-72
2020/12/07 12:57:53;;;;;;;4.03;3.63;;;5.10;33.00;;;;;;4962523;28;20194;-71
2020/12/07 13:00:19;;;;;;;4.27;3.57;;;5.10;33.00;;;;;;4978833;28;20624;-74
2020/12/07 13:02:45;;;;;;;3.80;3.30;;;5.10;33.00;;;;;;4954730;28;20216;-73
2020/12/07 13:05:11;;;;;;;5.10;4.20;;;5.20;33.20;;;;;;4949184;28;20209;-73
2020/12/07 13:07:36;;;;;;;4.03;3.63;;;5.20;33.10;;;;;;4950675;28;20276;-73
2020/12/07 13:10:02;;;;;;;3.90;3.50;;;5.20;31.50;;;;;;4958282;28;20186;-73
2020/12/07 13:12:28;;;;;;;6.43;4.22;;;5.20;32.00;;;;;;4947866;28;20199;-73
2020/12/07 13:14:53;;;;;;;4.00;2.67;;;5.20;31.90;;;;;;4946950;28;20190;-73
2020/12/07 13:17:21;;;;;;;10.50;4.33;;;5.10;31.80;;;;;;4959776;28;20190;-73
2020/12/07 13:19:47;;;;;;;3.60;3.30;;;4.90;32.20;;;;;;4958613;28;20702;-72
2020/12/07 13:22:33;;;;;;;5.10;3.47;;;4.70;32.70;;;;;;4945696;29;20707;-72
2020/12/07 13:25:08;;;;;;;7.18;3.47;;;4.70;32.80;;;;;;4957658;28;20187;-72
2020/12/07 13:27:49;;;;;;;2.78;2.58;;;4.70;33.00;;;;;;4969904;28;20207;-72